Aérodrome :
LOGIN :

S'inscrire | Disclaimer

   EN    FR    IT 

 










Légende :    VFR   VFR Marginal   IFR   IFR Intensif   IFR Très Intensif
Visi : 
Plafond : 
>= 8 km
>= 3000ft
5 à 8 km
1000 à 3000 ft
1500m à 5 km
500 à 1000 ft
800 à 1500m
200 à 500 ft
< 800m
< 200 ft
Symboles :   Orages  Brouillard  Fortes neiges  Fortes précipitations  Vent > 20 kt
SIGMETs :   Divers  Orages  Givrage  Turbulence  Onde Orograph.  Cendres Volcan.







- Altitude de l'aérodrome : 370 ft


EBBE - Beauvechain AB

DERNIER METAR :
  • 190955Z AUTO 24008KT 9999 FEW028/// SCT034/// BKN047/// 05/02 Q1020 BLU

METARs EXPIRÉS :
  • 190925Z AUTO 24004KT 9999 FEW023/// SCT027/// BKN043/// 04/01 Q1020 BLU
  • 190855Z AUTO 25006KT 9999 -RA SCT033/// BKN039/// BKN044/// 04/01 Q1020 BLU
  • 190825Z AUTO 24006KT 9999 BKN042/// BKN050/// 04/00 Q1020 BLU
  • 190755Z AUTO 24007KT 9999 SCT042/// BKN048/// 03/M00 Q1019 BLU
  • 190725Z AUTO 24007KT 9999 SCT047/// 03/M00 Q1019 BLU

Prévision TAF périmée.
Pas de NOTAMs connus pour ce terrain.



MET'MAP, la Météo Aéronautique d'un coup d'oeil ! - Copyright ORBIFLY Décembre 2007 - Disclaimer

ORBIFLY MET'MAP TEAM :

Programmation & Développement : Alexandra Zaïnal
Conception & Développement : Baudouin d'Aumeries
Co-Programmation & Développement : Marc-Olivier Méhu
Soutien technique & logistique : Manuel Goepfert

Contact : metmap@orbifly.com




SOURCES & CREDITS :

   NOAA